createdAt,value
2017-12-08T00:00:35.259Z,82.05
2017-12-08T00:01:45.015Z,82.43
2017-12-08T00:02:55.044Z,82.14
2017-12-08T00:04:04.779Z,82.24
2017-12-08T00:05:14.793Z,82.43
2017-12-08T00:06:24.542Z,82.24
2017-12-08T00:07:34.247Z,82.24
2017-12-08T00:08:44.324Z,82.24
2017-12-08T00:09:53.812Z,82.43
2017-12-08T00:11:03.547Z,82.05
2017-12-08T00:12:13.654Z,82.05
2017-12-08T00:13:23.428Z,82.05
2017-12-08T00:14:33.601Z,82.05
2017-12-08T00:15:43.841Z,81.86
2017-12-08T00:16:53.583Z,82.62
2017-12-08T00:18:03.057Z,82.43
2017-12-08T00:19:12.854Z,82.62
2017-12-08T00:20:22.997Z,82.71
2017-12-08T00:21:34.633Z,82.62
2017-12-08T00:22:44.609Z,82.43
2017-12-08T00:23:54.905Z,82.71
2017-12-08T00:25:05.118Z,82.52
2017-12-08T00:26:16.293Z,82.43
2017-12-08T00:27:27.184Z,82.9
2017-12-08T00:28:37.336Z,82.81
2017-12-08T00:29:47.127Z,82.05
2017-12-08T00:30:57.760Z,82.05
2017-12-08T00:32:07.927Z,82.71
2017-12-08T00:33:17.998Z,82.9
2017-12-08T00:34:28.983Z,82.62
2017-12-08T00:35:38.772Z,82.52
2017-12-08T00:36:48.894Z,82.71
2017-12-08T00:37:59.026Z,82.43
2017-12-08T00:39:09.180Z,82.43
2017-12-08T00:40:18.976Z,82.71
2017-12-08T00:41:29.773Z,82.62
2017-12-08T00:42:39.558Z,82.43
2017-12-08T00:43:49.606Z,82.62
2017-12-08T00:44:59.452Z,82.81
2017-12-08T00:46:09.246Z,82.43
2017-12-08T00:47:19.310Z,82.14
2017-12-08T00:48:29.109Z,82.05
2017-12-08T00:49:38.922Z,82.62
2017-12-08T00:50:48.460Z,82.14
2017-12-08T00:51:57.980Z,82.9
2017-12-08T00:53:07.576Z,82.62
2017-12-08T00:54:17.364Z,82.9
2017-12-08T00:55:27.404Z,82.71
2017-12-08T00:56:37.511Z,82.81
2017-12-08T00:57:47.572Z,83
2017-12-08T00:58:57.630Z,82.81
2017-12-08T01:00:07.687Z,82.81
2017-12-08T01:01:17.475Z,82.81
2017-12-08T01:02:27.065Z,82.71
2017-12-08T01:03:36.854Z,82.71
2017-12-08T01:04:46.910Z,82.71
2017-12-08T01:05:56.435Z,82.52
2017-12-08T01:07:06.242Z,82.43
2017-12-08T01:08:15.795Z,82.62
2017-12-08T01:09:25.845Z,82.62
2017-12-08T01:10:35.700Z,82.71
2017-12-08T01:11:45.751Z,82.81
2017-12-08T01:12:55.807Z,82.62
2017-12-08T01:14:05.843Z,82.81
2017-12-08T01:15:15.892Z,82.43
2017-12-08T01:16:25.942Z,82.52
2017-12-08T01:17:35.735Z,82.43
2017-12-08T01:18:45.783Z,83.09
2017-12-08T01:19:55.629Z,82.52
2017-12-08T01:21:05.676Z,82.71
2017-12-08T01:22:15.209Z,82.81
2017-12-08T01:23:25.260Z,82.9
2017-12-08T01:24:34.779Z,82.62
2017-12-08T01:25:44.644Z,82.81
2017-12-08T01:26:54.446Z,82.71
2017-12-08T01:28:03.713Z,82.43
2017-12-08T01:29:13.766Z,82.62
2017-12-08T01:30:24.330Z,82.71
2017-12-08T01:31:34.436Z,82.81
2017-12-08T01:32:44.235Z,82.62
2017-12-08T01:33:54.278Z,82.81
2017-12-08T01:35:04.349Z,83.09
2017-12-08T01:36:14.392Z,82.24
2017-12-08T01:37:24.494Z,82.33
2017-12-08T01:38:34.580Z,83
2017-12-08T01:39:44.365Z,82.24
2017-12-08T01:40:54.426Z,82.05
2017-12-08T01:42:04.486Z,82.24
2017-12-08T01:43:14.286Z,82.05
2017-12-08T01:44:24.054Z,82.05
2017-12-08T01:45:34.193Z,82.05
2017-12-08T01:46:43.987Z,82.43
2017-12-08T01:47:54.056Z,82.05
2017-12-08T01:49:03.845Z,82.9
2017-12-08T01:50:13.888Z,82.81
2017-12-08T01:51:23.458Z,82.81
2017-12-08T01:52:33.517Z,82.81
2017-12-08T01:53:43.564Z,82.71
2017-12-08T01:54:53.679Z,82.81
2017-12-08T01:56:03.825Z,82.81
2017-12-08T01:57:13.612Z,82.71
2017-12-08T01:58:23.139Z,82.81
2017-12-08T01:59:33.195Z,82.71
2017-12-08T02:00:43.243Z,82.62
2017-12-08T02:01:53.032Z,82.62
2017-12-08T02:03:02.828Z,82.62
2017-12-08T02:04:13.750Z,82.62
2017-12-08T02:05:23.816Z,82.85
2017-12-08T02:06:33.930Z,82.81
2017-12-08T02:07:43.734Z,82.71
2017-12-08T02:08:53.800Z,82.66
2017-12-08T02:10:03.592Z,82.94
2017-12-08T02:11:13.376Z,82.85
2017-12-08T02:12:23.444Z,82.85
2017-12-08T02:13:33.489Z,82.85
2017-12-08T02:14:43.548Z,82.85
2017-12-08T02:15:53.591Z,82.47
2017-12-08T02:17:03.382Z,82.85
2017-12-08T02:18:13.214Z,82.66
2017-12-08T02:19:23.275Z,82.75
2017-12-08T02:20:33.272Z,82.47
2017-12-08T02:21:43.340Z,82.85
2017-12-08T02:22:53.400Z,82.85
2017-12-08T02:24:03.251Z,82.71
2017-12-08T02:25:13.055Z,82.71
2017-12-08T02:26:23.126Z,83
2017-12-08T02:27:33.178Z,83.09
2017-12-08T02:28:43.234Z,83.09
2017-12-08T02:29:53.079Z,83.09
2017-12-08T02:31:02.875Z,83
2017-12-08T02:32:12.930Z,83
2017-12-08T02:33:22.718Z,82.62
2017-12-08T02:34:32.514Z,82.62
2017-12-08T02:35:42.301Z,82.71
2017-12-08T02:36:52.107Z,82.62
2017-12-08T02:38:02.179Z,82.62
2017-12-08T02:39:11.987Z,83.09
2017-12-08T02:40:21.765Z,82.76
2017-12-08T02:41:31.548Z,83.14
2017-12-08T02:42:41.600Z,83.33
2017-12-08T02:43:51.394Z,83.14
2017-12-08T02:45:01.199Z,82.86
2017-12-08T02:46:11.016Z,82.67
2017-12-08T02:47:20.853Z,82.57
2017-12-08T02:48:30.634Z,82.86
2017-12-08T02:49:40.158Z,82.95
2017-12-08T02:50:50.194Z,82.62
2017-12-08T02:52:00.249Z,82.9
2017-12-08T02:53:09.822Z,82.43
2017-12-08T02:54:19.888Z,82.48
2017-12-08T02:55:29.691Z,82.71
2017-12-08T02:56:39.733Z,82.62
2017-12-08T02:57:49.793Z,83.05
2017-12-08T02:58:59.583Z,82.95
2017-12-08T03:00:09.637Z,82.76
2017-12-08T03:01:19.441Z,82.76
2017-12-08T03:02:29.227Z,82.48
2017-12-08T03:33:57.767Z,78.39
2017-12-08T03:35:07.542Z,79.14
2017-12-08T03:36:17.591Z,80.37
2017-12-08T03:37:27.377Z,81.41
2017-12-08T03:38:37.170Z,81.32
2017-12-08T03:39:47.271Z,81.88
2017-12-08T03:40:57.322Z,82.83
2017-12-08T03:42:07.359Z,83.4
2017-12-08T03:43:17.416Z,83.02
2017-12-08T03:44:26.957Z,84.01
2017-12-08T03:45:37.050Z,83.72
2017-12-08T03:46:47.109Z,83.72
2017-12-08T03:47:56.911Z,83.82
2017-12-08T03:49:06.705Z,83.91
2017-12-08T03:50:16.246Z,84.1
2017-12-08T03:51:26.244Z,83.91
2017-12-08T03:52:36.297Z,83.58
2017-12-08T03:53:46.408Z,83.39
2017-12-08T03:54:56.464Z,83.1
2017-12-08T03:56:06.251Z,83.2
2017-12-08T03:57:16.073Z,83.48
2017-12-08T03:58:26.136Z,83.86
2017-12-08T03:59:35.931Z,83.67
2017-12-08T04:00:45.730Z,83.58
2017-12-08T04:01:55.774Z,83.1
2017-12-08T04:03:05.622Z,83.01
2017-12-08T04:04:15.406Z,83.01
2017-12-08T04:05:25.450Z,83.01
2017-12-08T04:06:35.311Z,83.01
2017-12-08T04:07:45.102Z,83.01
2017-12-08T04:08:54.941Z,82.63
2017-12-08T04:10:04.983Z,82.67
2017-12-08T04:11:14.515Z,82.63
2017-12-08T04:12:24.315Z,83.05
2017-12-08T04:13:34.419Z,82.91
2017-12-08T04:14:44.003Z,82.91
2017-12-08T04:15:54.060Z,83.05
2017-12-08T04:17:03.847Z,83.05
2017-12-08T04:18:13.881Z,82.76
2017-12-08T04:19:23.935Z,82.95
2017-12-08T04:20:33.453Z,83.43
2017-12-08T04:21:42.975Z,82.76
2017-12-08T04:22:52.765Z,82.76
2017-12-08T04:24:02.798Z,82.76
2017-12-08T04:25:12.860Z,82.67
2017-12-08T04:26:22.646Z,83.24
2017-12-08T04:27:32.444Z,82.57
2017-12-08T04:28:42.546Z,82.76
2017-12-08T04:29:52.346Z,83.05
2017-12-08T04:31:02.402Z,82.95
2017-12-08T04:32:12.186Z,82.95
2017-12-08T04:33:21.963Z,82.95
2017-12-08T04:34:32.018Z,82.95
2017-12-08T04:35:41.815Z,83.05
2017-12-08T04:36:51.341Z,83.14
2017-12-08T04:38:01.397Z,82.76
2017-12-08T04:39:11.444Z,82.95
2017-12-08T04:40:21.493Z,82.95
2017-12-08T04:41:31.281Z,82.86
2017-12-08T04:42:41.064Z,82.76
2017-12-08T04:43:51.174Z,82.48
2017-12-08T04:45:01.229Z,83.14
2017-12-08T04:46:11.281Z,82.48
2017-12-08T04:47:21.059Z,83.05
2017-12-08T04:48:31.128Z,83.05
2017-12-08T04:49:41.195Z,82.76
2017-12-08T04:50:50.971Z,82.95
2017-12-08T04:52:01.021Z,82.86
2017-12-08T04:53:10.811Z,83.05
2017-12-08T04:54:20.857Z,83.05
2017-12-08T04:55:30.900Z,83.05
2017-12-08T04:56:40.682Z,82.48
2017-12-08T04:57:50.528Z,83.05
2017-12-08T04:59:00.315Z,83.14
2017-12-08T05:00:10.093Z,82.86
2017-12-08T05:01:20.141Z,83.05
2017-12-08T05:02:30.222Z,83.14
2017-12-08T05:03:40.286Z,82.95
2017-12-08T05:04:50.068Z,82.67
2017-12-08T05:05:59.846Z,82.95
2017-12-08T05:07:09.898Z,82.95
2017-12-08T05:08:19.695Z,83.05
2017-12-08T05:09:29.741Z,83.05
2017-12-08T05:10:39.417Z,83.05
2017-12-08T05:11:49.198Z,82.95
2017-12-08T05:12:59.301Z,82.95
2017-12-08T05:14:10.151Z,83.05
2017-12-08T05:15:19.954Z,83.05
2017-12-08T05:16:30.004Z,82.95
2017-12-08T05:17:40.038Z,82.76
2017-12-08T05:18:50.104Z,82.76
2017-12-08T05:20:00.157Z,82.76
2017-12-08T05:21:09.948Z,82.76
2017-12-08T05:22:19.474Z,83.05
2017-12-08T05:23:29.526Z,83.14
2017-12-08T05:24:39.049Z,82.86
2017-12-08T05:25:49.086Z,82.95
2017-12-08T05:26:58.597Z,82.95
2017-12-08T05:28:08.125Z,83.05
2017-12-08T05:29:17.911Z,82.86
2017-12-08T05:30:27.754Z,82.95
2017-12-08T05:31:37.804Z,82.48
2017-12-08T05:32:47.907Z,82.57
2017-12-08T05:33:57.433Z,82.57
2017-12-08T05:35:07.558Z,82.57
2017-12-08T05:36:17.617Z,82.57
2017-12-08T05:37:27.147Z,82.57
2017-12-08T05:38:37.236Z,82.57
2017-12-08T05:39:47.321Z,83.05
2017-12-08T05:40:57.110Z,82.95
2017-12-08T05:42:07.025Z,83.05
2017-12-08T05:43:17.074Z,83.05
2017-12-08T05:44:26.922Z,83.05
2017-12-08T05:45:36.977Z,82.95
2017-12-08T05:46:46.244Z,82.76
2017-12-08T05:47:56.023Z,82.95
2017-12-08T05:49:06.076Z,82.95
2017-12-08T05:50:16.134Z,83.05
2017-12-08T05:51:26.194Z,82.95
2017-12-08T05:52:35.988Z,83.05
2017-12-08T05:53:46.080Z,82.95
2017-12-08T05:54:56.132Z,82.43
2017-12-08T05:56:05.917Z,83
2017-12-08T05:57:15.713Z,82.81
2017-12-08T05:58:25.499Z,82.71
2017-12-08T05:59:35.697Z,82.71
2017-12-08T06:00:45.493Z,82.62
2017-12-08T06:01:55.549Z,82.43
2017-12-08T06:03:05.607Z,82.71
2017-12-08T06:04:15.389Z,82.71
2017-12-08T06:05:24.959Z,82.81
2017-12-08T06:06:35.013Z,82.43
2017-12-08T06:07:44.800Z,82.9
2017-12-08T06:08:54.870Z,82.81
2017-12-08T06:10:04.913Z,82.43
2017-12-08T06:11:14.451Z,82.81
2017-12-08T06:12:24.509Z,82.43
2017-12-08T06:13:34.552Z,82.81
2017-12-08T06:14:44.081Z,82.71
2017-12-08T06:15:53.602Z,83.18
2017-12-08T06:17:03.434Z,83.09
2017-12-08T06:18:13.485Z,83
2017-12-08T06:19:23.727Z,82.9
2017-12-08T06:20:33.778Z,82.62
2017-12-08T06:21:43.566Z,83
2017-12-08T06:22:53.131Z,82.81
2017-12-08T06:24:02.916Z,82.9
2017-12-08T06:25:12.994Z,82.62
2017-12-08T06:26:23.099Z,82.9
2017-12-08T06:27:32.642Z,82.71
2017-12-08T06:28:42.499Z,83
2017-12-08T06:29:52.553Z,83.09
2017-12-08T06:31:02.344Z,82.62
2017-12-08T06:32:12.405Z,82.62
2017-12-08T06:33:22.204Z,82.81
2017-12-08T06:34:32.039Z,82.62
2017-12-08T06:35:41.819Z,83.09
2017-12-08T06:36:51.851Z,83
2017-12-08T06:38:01.898Z,83
2017-12-08T06:39:11.954Z,82.81
2017-12-08T06:40:21.748Z,82.9
2017-12-08T06:41:31.811Z,82.9
2017-12-08T06:42:41.601Z,82.9
2017-12-08T06:43:51.408Z,82.71
2017-12-08T06:45:01.205Z,82.81
2017-12-08T06:46:11.008Z,82.62
2017-12-08T06:47:21.052Z,82.33
2017-12-08T06:48:30.641Z,82.62
2017-12-08T06:49:40.692Z,82.43
2017-12-08T06:50:50.730Z,82.52
2017-12-08T06:52:00.308Z,83.09
2017-12-08T06:53:10.362Z,83.09
2017-12-08T06:54:20.424Z,83
2017-12-08T06:55:30.202Z,83.09
2017-12-08T06:56:39.985Z,82.81
2017-12-08T06:57:50.098Z,83.04
2017-12-08T06:58:59.891Z,83.13
2017-12-08T07:00:10.998Z,83.13
2017-12-08T07:01:21.044Z,83.13
2017-12-08T07:02:30.830Z,83.04
2017-12-08T07:03:40.364Z,83.13
2017-12-08T07:04:50.174Z,83.13
2017-12-08T07:05:59.951Z,83.23
2017-12-08T07:07:09.738Z,82.56
2017-12-08T07:08:19.520Z,82.47
2017-12-08T07:09:29.319Z,82.75
2017-12-08T07:10:39.376Z,82.56
2017-12-08T07:11:49.420Z,82.66
2017-12-08T07:12:59.477Z,82.85
2017-12-08T07:14:09.538Z,83.13
2017-12-08T07:15:19.319Z,83.23
2017-12-08T07:16:29.101Z,83.13
2017-12-08T07:17:39.148Z,83.13
2017-12-08T07:18:49.210Z,82.66
2017-12-08T07:19:59.256Z,83.04
2017-12-08T07:21:08.838Z,83.13
2017-12-08T07:22:18.623Z,82.94
2017-12-08T07:23:28.756Z,82.75
2017-12-08T07:24:38.550Z,82.66
2017-12-08T07:25:48.352Z,82.85
2017-12-08T07:26:58.452Z,82.94
2017-12-08T07:28:08.495Z,82.85
2017-12-08T07:29:18.018Z,82.85
2017-12-08T07:30:29.505Z,82.28
2017-12-08T07:31:39.569Z,82.42
2017-12-08T07:32:49.399Z,82.37
2017-12-08T07:33:59.221Z,82.7
2017-12-08T07:35:08.741Z,82.32
2017-12-08T07:36:18.796Z,82.42
2017-12-08T07:37:28.584Z,82.51
2017-12-08T07:38:38.705Z,82.6
2017-12-08T07:39:48.493Z,82.32
2017-12-08T07:40:58.547Z,82.23
2017-12-08T07:42:08.624Z,82.7
2017-12-08T07:43:18.695Z,82.51
2017-12-08T07:44:28.805Z,83.13
2017-12-08T07:45:38.867Z,83.08
2017-12-08T07:46:48.701Z,82.85
2017-12-08T07:47:58.281Z,82.66
2017-12-08T07:49:08.345Z,83.32
2017-12-08T07:50:18.133Z,83.04
2017-12-08T07:51:27.661Z,82.85
2017-12-08T07:52:37.518Z,83.42
2017-12-08T07:53:47.068Z,82.85
2017-12-08T07:54:56.866Z,83.04
2017-12-08T07:56:06.916Z,83.04
2017-12-08T07:57:16.980Z,82.94
2017-12-08T07:58:26.809Z,82.47
2017-12-08T07:59:36.338Z,82.56
2017-12-08T08:00:46.399Z,82.47
2017-12-08T08:01:56.462Z,83.13
2017-12-08T08:03:06.535Z,83.04
2017-12-08T08:04:16.594Z,83.13
2017-12-08T08:05:26.439Z,83.13
2017-12-08T08:06:36.502Z,82.94
2017-12-08T08:07:46.029Z,82.85
2017-12-08T08:08:56.102Z,82.85
2017-12-08T08:10:05.887Z,82.09
2017-12-08T08:11:15.692Z,82.28
2017-12-08T08:12:25.757Z,82.09
2017-12-08T08:13:36.392Z,82.18
2017-12-08T08:14:45.918Z,82.32
2017-12-08T08:15:56.412Z,82.51
2017-12-08T08:17:05.967Z,82.04
2017-12-08T08:18:16.021Z,81.85
2017-12-08T08:19:26.082Z,81.94
2017-12-08T08:20:35.876Z,81.85
2017-12-08T08:21:45.661Z,82.23
2017-12-08T08:22:55.714Z,82.04
2017-12-08T08:24:05.750Z,81.75
2017-12-08T08:25:15.860Z,81.75
2017-12-08T08:26:25.652Z,81.94
2017-12-08T08:27:35.706Z,82.04
2017-12-08T08:28:45.787Z,82.13
2017-12-08T08:29:55.689Z,81.94
2017-12-08T08:31:05.472Z,81.66
2017-12-08T08:32:15.276Z,82.04
2017-12-08T08:33:25.063Z,82.23
2017-12-08T08:34:35.126Z,81.85
2017-12-08T08:35:44.670Z,82.32
2017-12-08T08:36:54.744Z,82.23
2017-12-08T08:38:05.081Z,81.75
2017-12-08T08:39:14.862Z,81.85
2017-12-08T08:40:25.011Z,81.66
2017-12-08T08:41:34.808Z,81.66
2017-12-08T08:42:44.328Z,82.27
2017-12-08T08:43:54.384Z,82.13
2017-12-08T08:45:04.445Z,81.88
2017-12-08T08:46:14.246Z,82.17
2017-12-08T08:47:24.318Z,81.79
2017-12-08T08:48:34.405Z,81.88
2017-12-08T08:49:45.602Z,81.88
2017-12-08T08:50:55.395Z,81.88
2017-12-08T08:52:07.279Z,81.7
2017-12-08T08:53:17.980Z,82.17
2017-12-08T08:54:28.093Z,82.27
2017-12-08T08:55:38.162Z,82.27
2017-12-08T08:56:47.949Z,81.88
2017-12-08T08:57:58.023Z,81.7
2017-12-08T08:59:08.924Z,81.98
2017-12-08T09:00:19.457Z,81.7
2017-12-08T09:01:29.553Z,81.88
2017-12-08T09:02:39.343Z,81.79
2017-12-08T09:03:49.394Z,81.98
2017-12-08T09:04:59.240Z,81.98
2017-12-08T09:06:09.064Z,82.08
2017-12-08T09:07:18.597Z,82.08
2017-12-08T09:08:28.420Z,81.93
2017-12-08T09:09:39.684Z,81.93
2017-12-08T09:10:49.483Z,82.03
2017-12-08T09:11:59.338Z,81.84
2017-12-08T09:13:09.133Z,81.65
2017-12-08T09:14:18.931Z,81.17
2017-12-08T09:15:28.991Z,81.45
2017-12-08T09:16:39.048Z,81.55
2017-12-08T09:17:49.125Z,81.84
2017-12-08T09:18:58.395Z,82.03
2017-12-08T09:20:07.919Z,82.12
2017-12-08T09:21:17.736Z,82.03
2017-12-08T09:22:27.782Z,82.12
2017-12-08T09:23:37.874Z,81.74
2017-12-08T09:24:47.956Z,82.03
2017-12-08T09:25:57.822Z,82.21
2017-12-08T09:27:07.614Z,81.84
2017-12-08T09:28:17.665Z,81.84
2017-12-08T09:29:27.743Z,81.84
2017-12-08T09:30:37.605Z,81.84
2017-12-08T09:31:47.672Z,81.84
2017-12-08T09:32:56.676Z,82.31
2017-12-08T09:34:07.555Z,82.78
2017-12-08T09:35:17.402Z,82.21
2017-12-08T09:36:28.873Z,82.21
2017-12-08T09:37:38.937Z,82.59
2017-12-08T09:38:49.041Z,82.59
2017-12-08T09:39:58.821Z,82.69
2017-12-08T09:41:08.945Z,82.5
2017-12-08T09:42:18.750Z,82.59
2017-12-08T09:43:28.534Z,82.12
2017-12-08T09:44:38.596Z,82.03
2017-12-08T09:45:48.398Z,81.84
2017-12-08T09:46:58.461Z,82.12
2017-12-08T09:48:08.509Z,82.16
2017-12-08T09:49:18.586Z,82.35
2017-12-08T09:50:28.676Z,81.59
2017-12-08T09:51:38.480Z,81.97
2017-12-08T09:52:48.338Z,81.87
2017-12-08T09:53:58.419Z,81.78
2017-12-08T09:55:07.955Z,82.07
2017-12-08T09:56:18.003Z,82.26
2017-12-08T09:57:27.782Z,82.29
2017-12-08T09:58:37.835Z,82.29
2017-12-08T09:59:47.434Z,82.29
2017-12-08T10:00:57.226Z,82.2
2017-12-08T10:02:07.064Z,81.92
2017-12-08T10:03:17.154Z,82.29
2017-12-08T10:04:27.327Z,82.01
2017-12-08T10:05:37.391Z,81.92
2017-12-08T10:06:47.493Z,82.64
2017-12-08T10:07:57.556Z,82.45
2017-12-08T10:09:07.608Z,83.11
2017-12-08T10:10:17.701Z,82.82
2017-12-08T10:11:27.753Z,83.2
2017-12-08T10:12:37.287Z,83.2
2017-12-08T10:13:47.214Z,83.07
2017-12-08T10:14:57.277Z,83.36
2017-12-08T10:16:07.395Z,83.92
2017-12-08T10:17:17.458Z,83.83
2017-12-08T10:18:27.533Z,84.01
2017-12-08T10:19:37.760Z,83.36
2017-12-08T10:20:47.828Z,82.88
2017-12-08T10:21:57.625Z,83.16
2017-12-08T10:23:07.445Z,83.16
2017-12-08T10:24:17.251Z,83.16
2017-12-08T10:25:27.059Z,83.26
2017-12-08T10:26:37.122Z,83.26
2017-12-08T10:27:47.192Z,82.69
2017-12-08T10:28:56.994Z,82.92
2017-12-08T10:30:06.807Z,83.3
2017-12-08T10:31:16.872Z,82.35
2017-12-08T10:32:27.830Z,82.26
2017-12-08T10:33:37.379Z,82.82
2017-12-08T10:34:47.165Z,82.16
2017-12-08T10:35:58.321Z,81.97
2017-12-08T10:37:08.374Z,82.07
2017-12-08T10:38:18.968Z,82.16
2017-12-08T10:39:29.023Z,82.07
2017-12-08T10:40:40.221Z,81.97
2017-12-08T10:41:50.343Z,81.87
2017-12-08T10:43:00.145Z,82.16
2017-12-08T10:44:09.953Z,82.64
2017-12-08T10:45:19.768Z,82.26
2017-12-08T10:46:29.289Z,82.45
2017-12-08T10:47:38.820Z,82.73
2017-12-08T10:48:48.890Z,83.01
2017-12-08T10:49:58.953Z,82.88
2017-12-08T10:51:09.045Z,83.01
2017-12-08T10:52:19.151Z,82.82
2017-12-08T10:53:29.213Z,83.16
2017-12-08T10:54:38.835Z,82.78
2017-12-08T10:55:48.979Z,83.16
2017-12-08T10:56:58.815Z,82.88
2017-12-08T10:58:08.868Z,83.26
2017-12-08T10:59:18.928Z,83.26
2017-12-08T11:00:28.748Z,83.07
2017-12-08T11:01:39.111Z,83.07
2017-12-08T11:02:48.698Z,82.97
2017-12-08T11:03:58.485Z,83.16
2017-12-08T11:05:08.327Z,82.97
2017-12-08T11:06:18.158Z,82.88
2017-12-08T11:07:28.223Z,82.88
2017-12-08T11:08:38.269Z,83.22
2017-12-08T11:09:48.325Z,83.16
2017-12-08T11:10:58.387Z,83.31
2017-12-08T11:12:08.178Z,83.16
2017-12-08T11:13:17.982Z,83.54
2017-12-08T11:14:28.040Z,83.16
2017-12-08T11:15:38.102Z,83.07
2017-12-08T11:16:48.151Z,82.88
2017-12-08T11:17:57.956Z,82.78
2017-12-08T11:19:08.020Z,83.12
2017-12-08T11:20:17.845Z,83.12
2017-12-08T11:21:27.645Z,82.84
2017-12-08T11:22:37.712Z,82.65
2017-12-08T11:23:47.798Z,82.84
2017-12-08T11:24:58.907Z,83.03
2017-12-08T11:26:08.993Z,82.84
2017-12-08T11:27:19.095Z,83.22
2017-12-08T11:28:28.945Z,82.84
2017-12-08T11:29:39.027Z,82.93
2017-12-08T11:30:49.287Z,83.03
2017-12-08T11:31:59.358Z,82.84
2017-12-08T11:33:09.182Z,83.03
2017-12-08T11:34:19.005Z,83.22
2017-12-08T11:35:29.144Z,83.03
2017-12-08T11:36:39.250Z,83.31
2017-12-08T11:37:49.345Z,83.03
2017-12-08T11:38:59.472Z,83.31
2017-12-08T11:40:09.631Z,83.31
2017-12-08T11:41:19.776Z,82.93
2017-12-08T11:42:29.637Z,83.03
2017-12-08T11:43:39.706Z,83.03
2017-12-08T11:44:49.517Z,82.84
2017-12-08T11:45:59.603Z,82.74
2017-12-08T11:47:09.681Z,82.89
2017-12-08T11:48:19.502Z,83.12
2017-12-08T11:49:29.632Z,83.12
2017-12-08T11:50:39.427Z,83.22
2017-12-08T11:51:49.237Z,82.84
2017-12-08T11:52:59.300Z,82.93
2017-12-08T11:54:08.848Z,82.36
2017-12-08T11:55:18.945Z,82.08
2017-12-08T11:56:28.781Z,82.27
2017-12-08T11:57:38.913Z,82.36
2017-12-08T11:58:49.014Z,82.36
2017-12-08T11:59:59.070Z,82.36
2017-12-08T12:01:09.099Z,82.93
2017-12-08T12:02:18.891Z,82.93
2017-12-08T12:03:29.024Z,82.84
2017-12-08T12:04:39.090Z,82.74
2017-12-08T12:05:48.878Z,83.03
2017-12-08T12:06:58.942Z,82.74
2017-12-08T12:08:09.012Z,83.4
2017-12-08T12:09:19.127Z,82.74
2017-12-08T12:10:28.987Z,82.74
2017-12-08T12:11:38.881Z,83.03
2017-12-08T12:12:49.132Z,82.93
2017-12-08T12:13:59.325Z,82.93
2017-12-08T12:15:09.406Z,83.03
2017-12-08T12:16:19.494Z,83.03
2017-12-08T12:17:29.540Z,82.93
2017-12-08T12:18:39.632Z,83.31
2017-12-08T12:19:49.712Z,83.12
2017-12-08T12:20:59.780Z,83.5
2017-12-08T12:22:09.849Z,83.03
2017-12-08T12:23:19.671Z,83.12
2017-12-08T12:24:29.733Z,83.5
2017-12-08T12:25:39.531Z,82.93
2017-12-08T12:26:49.628Z,82.74
2017-12-08T12:27:59.192Z,83.22
2017-12-08T12:29:09.532Z,83.12
2017-12-08T12:30:19.604Z,83.03
2017-12-08T12:31:29.434Z,83.22
2017-12-08T12:32:39.571Z,83.12
2017-12-08T12:33:49.631Z,82.93
2017-12-08T12:34:59.681Z,83.12
2017-12-08T12:36:09.458Z,83.12
2017-12-08T12:37:19.536Z,83.22
2017-12-08T12:38:29.653Z,83.03
2017-12-08T12:39:39.727Z,83.12
2017-12-08T12:40:49.822Z,83.12
2017-12-08T12:41:59.906Z,82.93
2017-12-08T12:43:09.728Z,83.12
2017-12-08T12:44:20.504Z,82.74
2017-12-08T12:45:30.331Z,82.84
2017-12-08T12:46:40.399Z,82.84
2017-12-08T12:47:49.664Z,82.84
2017-12-08T12:48:59.727Z,83.22
2017-12-08T12:50:09.579Z,82.84
2017-12-08T12:51:19.652Z,82.84
2017-12-08T12:52:29.256Z,83.12
2017-12-08T12:53:39.319Z,83.03
2017-12-08T12:54:49.122Z,83.12
2017-12-08T12:55:58.936Z,83.22
2017-12-08T12:57:09.039Z,83.03
2017-12-08T12:58:19.194Z,83.12
2017-12-08T12:59:29.655Z,83.31
2017-12-08T13:00:39.466Z,83.97
2017-12-08T13:01:50.390Z,83.31
2017-12-08T13:03:00.191Z,83.31
2017-12-08T13:04:10.341Z,83.59
2017-12-08T13:05:19.918Z,83.69
2017-12-08T13:06:29.722Z,83.59
2017-12-08T13:07:39.785Z,84.07
2017-12-08T13:08:49.857Z,83.97
2017-12-08T13:09:59.730Z,83.88
2017-12-08T13:11:09.597Z,83.78
2017-12-08T13:12:20.714Z,83.59
2017-12-08T13:13:30.777Z,84.07
2017-12-08T13:14:41.966Z,83.88
2017-12-08T13:15:51.794Z,84.07
2017-12-08T13:17:01.903Z,83.5
2017-12-08T13:18:11.972Z,83.59
2017-12-08T13:19:22.699Z,83.69
2017-12-08T13:20:32.770Z,83.59
2017-12-08T13:21:42.896Z,83.88
2017-12-08T13:22:53.305Z,83.69
2017-12-08T13:24:03.126Z,83.4
2017-12-08T13:25:12.930Z,83.5
2017-12-08T13:26:22.994Z,83.5
2017-12-08T13:27:33.120Z,83.88
2017-12-08T13:28:42.926Z,83.88
2017-12-08T13:29:52.722Z,83.5
2017-12-08T13:31:02.532Z,83.4
2017-12-08T13:32:12.360Z,83.4
2017-12-08T13:33:22.216Z,83.5
2017-12-08T13:34:32.077Z,83.4
2017-12-08T13:35:42.800Z,83.31
2017-12-08T13:36:52.880Z,83.22
2017-12-08T13:38:02.721Z,83.4
2017-12-08T13:39:12.263Z,83.5
2017-12-08T13:40:22.379Z,83.5
2017-12-08T13:41:31.930Z,83.4
2017-12-08T13:42:41.246Z,83.97
2017-12-08T13:43:51.321Z,83.59
2017-12-08T13:45:01.263Z,83.5
2017-12-08T13:46:11.132Z,83.88
2017-12-08T13:47:20.939Z,84.17
2017-12-08T13:48:30.752Z,84.07
2017-12-08T13:49:40.811Z,84.17
2017-12-08T13:50:50.966Z,84.07
2017-12-08T13:52:01.023Z,84.17
2017-12-08T13:53:10.560Z,84.03
2017-12-08T13:54:20.638Z,84.12
2017-12-08T13:55:30.706Z,84.07
2017-12-08T13:56:40.809Z,84.17
2017-12-08T13:57:50.069Z,84.07
2017-12-08T13:58:59.635Z,83.78
2017-12-08T14:00:09.183Z,84.03
2017-12-08T14:01:19.335Z,83.97
2017-12-08T14:02:29.152Z,84.03
2017-12-08T14:03:38.951Z,84.12
2017-12-08T14:04:49.048Z,84.03
2017-12-08T14:05:59.116Z,83.84
2017-12-08T14:07:08.930Z,84.03
2017-12-08T14:08:18.722Z,84.22
2017-12-08T14:09:28.980Z,84.31
2017-12-08T14:10:39.171Z,84.22
2017-12-08T14:11:49.320Z,84.03
2017-12-08T14:12:58.860Z,84.03
2017-12-08T14:14:08.723Z,84.12
2017-12-08T14:15:18.874Z,84.41
2017-12-08T14:16:29.446Z,84.22
2017-12-08T14:17:39.470Z,84.03
2017-12-08T14:18:50.752Z,84.03
2017-12-08T14:20:00.818Z,84.03
2017-12-08T14:21:10.800Z,84.03
2017-12-08T14:22:20.886Z,84.12
2017-12-08T14:23:30.962Z,84.03
2017-12-08T14:24:41.042Z,84.12
2017-12-08T14:25:51.118Z,84.03
2017-12-08T14:27:00.949Z,84.12
2017-12-08T14:28:11.046Z,83.84
2017-12-08T14:29:21.117Z,84.03
2017-12-08T14:30:31.330Z,84.22
2017-12-08T14:31:41.393Z,83.84
2017-12-08T14:32:51.220Z,83.94
2017-12-08T14:34:01.312Z,84.12
2017-12-08T14:35:11.384Z,84.12
2017-12-08T14:36:21.204Z,84.22
2017-12-08T14:37:30.993Z,83.84
2017-12-08T14:38:41.699Z,83.84
2017-12-08T14:39:51.778Z,83.94
2017-12-08T14:41:01.848Z,83.94
2017-12-08T14:42:11.919Z,83.94
2017-12-08T14:43:21.731Z,84.03
2017-12-08T14:44:32.358Z,84.12
2017-12-08T14:45:42.440Z,84.12
2017-12-08T14:46:52.608Z,83.94
2017-12-08T14:48:02.158Z,84.12
2017-12-08T14:49:12.272Z,83.94
2017-12-08T14:50:21.805Z,84.12
2017-12-08T14:51:31.891Z,84.03
2017-12-08T14:52:41.988Z,84.03
2017-12-08T14:53:52.749Z,83.84
2017-12-08T14:55:02.832Z,84.03
2017-12-08T14:56:12.904Z,84.03
2017-12-08T14:57:22.969Z,84.03
2017-12-08T14:58:32.258Z,83.84
2017-12-08T14:59:42.348Z,83.94
2017-12-08T15:00:52.446Z,84.03
2017-12-08T15:02:02.872Z,84.12
2017-12-08T15:03:12.943Z,84.03
2017-12-08T15:04:22.774Z,84.22
2017-12-08T15:05:33.050Z,84.41
2017-12-08T15:06:43.128Z,83.74
2017-12-08T15:07:53.207Z,83.74
2017-12-08T15:09:03.303Z,83.65
2017-12-08T15:10:13.378Z,83.65
2017-12-08T15:11:23.226Z,83.74
2017-12-08T15:12:33.043Z,83.55
2017-12-08T15:13:43.102Z,83.94
2017-12-08T15:14:52.661Z,83.94
2017-12-08T15:16:02.472Z,83.74
2017-12-08T15:17:12.086Z,83.74
2017-12-08T15:18:21.949Z,84.31
2017-12-08T15:19:32.029Z,84.03
2017-12-08T15:20:41.827Z,83.84
2017-12-08T15:21:51.897Z,84.03
2017-12-08T15:23:01.718Z,84.03
2017-12-08T15:24:11.886Z,83.94
2017-12-08T15:25:22.054Z,83.65
2017-12-08T15:26:32.113Z,83.74
2017-12-08T15:27:42.182Z,83.74
2017-12-08T15:28:52.254Z,83.65
2017-12-08T15:30:02.380Z,83.55
2017-12-08T15:31:12.214Z,83.46
2017-12-08T15:32:22.292Z,83.55
2017-12-08T15:33:32.401Z,83.55
2017-12-08T15:34:42.469Z,83.46